createdAt,value
2022-09-12T00:01:56.825Z,0.30
2022-09-12T00:04:24.673Z,0.30
2022-09-12T00:06:52.319Z,0.35
2022-09-12T00:09:19.951Z,0.30
2022-09-12T00:11:47.992Z,0.25
2022-09-12T00:14:18.634Z,0.35
2022-09-12T00:16:46.549Z,0.40
2022-09-12T00:19:15.692Z,0.28
2022-09-12T00:21:43.388Z,0.40
2022-09-12T00:24:12.075Z,0.38
2022-09-12T00:26:39.787Z,0.50
2022-09-12T00:29:07.472Z,0.25
2022-09-12T00:31:35.252Z,0.45
2022-09-12T00:34:03.004Z,0.30
2022-09-12T00:36:32.573Z,0.30
2022-09-12T00:39:00.317Z,0.38
2022-09-12T00:41:31.331Z,0.57
2022-09-12T00:44:00.569Z,0.50
2022-09-12T00:46:35.656Z,0.43
2022-09-12T00:49:06.265Z,0.30
2022-09-12T00:51:36.900Z,0.20
2022-09-12T00:54:08.977Z,0.40
2022-09-12T00:56:37.851Z,0.30
2022-09-12T00:59:09.711Z,0.40
2022-09-12T01:01:37.636Z,0.20
2022-09-12T01:04:05.490Z,0.30
2022-09-12T01:06:37.340Z,0.50
2022-09-12T01:09:05.288Z,0.30
2022-09-12T01:11:33.492Z,0.55
2022-09-12T01:14:01.161Z,0.17
2022-09-12T01:16:30.248Z,0.40
2022-09-12T01:19:12.628Z,0.45
2022-09-12T01:21:46.852Z,0.47
2022-09-12T01:24:35.807Z,0.50
2022-09-12T01:27:19.490Z,0.32
2022-09-12T01:30:20.709Z,0.40
2022-09-12T01:32:57.464Z,0.30
2022-09-12T01:35:28.891Z,0.20
2022-09-12T01:38:08.455Z,0.38
2022-09-12T01:40:46.211Z,0.30
2022-09-12T01:43:19.924Z,0.20
2022-09-12T01:45:48.836Z,0.20
2022-09-12T01:48:20.563Z,0.40
2022-09-12T01:50:51.827Z,0.30
2022-09-12T01:53:23.555Z,0.40
2022-09-12T01:55:55.364Z,0.40
2022-09-12T01:58:26.223Z,0.40
2022-09-12T02:01:01.363Z,0.20
2022-09-12T02:03:34.057Z,0.30
2022-09-12T02:06:06.336Z,0.40
2022-09-12T02:08:36.652Z,0.20
2022-09-12T02:11:08.351Z,0.35
2022-09-12T02:13:40.353Z,0.30
2022-09-12T02:16:11.580Z,0.13
2022-09-12T02:18:43.621Z,0.20
2022-09-12T02:21:11.527Z,0.17
2022-09-12T02:23:41.527Z,0.30
2022-09-12T02:26:13.849Z,0.20
2022-09-12T02:28:43.555Z,0.20
2022-09-12T02:31:15.598Z,0.32
2022-09-12T02:33:49.812Z,0.40
2022-09-12T02:36:25.020Z,0.50
2022-09-12T02:38:52.699Z,0.25
2022-09-12T02:41:21.658Z,0.40
2022-09-12T02:43:50.274Z,0.40
2022-09-12T02:46:20.982Z,0.10
2022-09-12T02:48:49.963Z,0.30
2022-09-12T02:51:22.881Z,0.30
2022-09-12T02:53:51.465Z,0.20
2022-09-12T02:56:23.629Z,0.20
2022-09-12T02:58:51.396Z,0.20
2022-09-12T03:01:30.994Z,0.52
2022-09-12T03:04:17.944Z,0.20
2022-09-12T03:06:52.363Z,0.20
2022-09-12T03:09:23.508Z,0.30
2022-09-12T03:12:03.616Z,0.22
2022-09-12T03:14:40.777Z,0.30
2022-09-12T03:17:14.478Z,0.15
2022-09-12T03:19:52.156Z,0.30
2022-09-12T03:22:23.697Z,0.20
2022-09-12T03:24:55.183Z,0.25
2022-09-12T03:27:27.727Z,0.28
2022-09-12T03:29:56.864Z,0.10
2022-09-12T03:32:45.580Z,0.40
2022-09-12T03:35:19.836Z,0.28
2022-09-12T03:37:51.509Z,0.30
2022-09-12T03:40:19.369Z,0.35
2022-09-12T03:42:47.019Z,0.20
2022-09-12T03:45:16.411Z,0.30
2022-09-12T03:47:44.180Z,0.32
2022-09-12T03:50:13.577Z,0.20
2022-09-12T03:52:41.211Z,0.25
2022-09-12T03:55:09.520Z,0.30
2022-09-12T03:57:37.180Z,0.30
2022-09-12T04:00:05.756Z,0.35
2022-09-12T04:02:33.441Z,0.30
2022-09-12T04:05:01.918Z,0.28
2022-09-12T04:07:30.988Z,0.17
2022-09-12T04:09:58.676Z,0.20
2022-09-12T04:12:26.313Z,0.30
2022-09-12T04:14:54.108Z,0.20
2022-09-12T04:17:21.804Z,0.30
2022-09-12T04:19:49.452Z,0.28
2022-09-12T04:22:17.088Z,0.30
2022-09-12T04:24:46.218Z,0.20
2022-09-12T04:27:13.959Z,0.20
2022-09-12T04:29:41.775Z,0.22
2022-09-12T04:32:09.524Z,0.30
2022-09-12T04:34:37.149Z,0.20
2022-09-12T04:37:05.068Z,0.50
2022-09-12T04:39:32.728Z,0.32
2022-09-12T04:42:02.927Z,0.20
2022-09-12T04:44:30.916Z,0.20
2022-09-12T04:46:58.572Z,0.35
2022-09-12T04:49:26.279Z,0.20
2022-09-12T04:51:54.758Z,0.40
2022-09-12T04:54:22.417Z,0.63
2022-09-12T04:56:51.081Z,0.50
2022-09-12T04:59:21.660Z,0.30
2022-09-12T05:01:49.786Z,0.25
2022-09-12T05:04:17.924Z,0.10
2022-09-12T05:06:47.528Z,0.10
2022-09-12T05:09:15.781Z,0.40
2022-09-12T05:12:04.309Z,0.32
2022-09-12T05:14:34.639Z,0.20
2022-09-12T05:17:03.015Z,0.40
2022-09-12T05:19:31.703Z,0.30
2022-09-12T05:21:59.935Z,0.25
2022-09-12T05:24:28.003Z,0.30
2022-09-12T05:26:55.713Z,0.22
2022-09-12T05:29:24.984Z,0.20
2022-09-12T05:31:54.352Z,0.30
2022-09-12T05:34:22.263Z,0.30
2022-09-12T05:36:50.034Z,0.45
2022-09-12T05:39:18.458Z,0.30
2022-09-12T05:41:46.139Z,0.25
2022-09-12T05:44:14.983Z,0.30
2022-09-12T05:46:44.251Z,0.38
2022-09-12T05:49:14.410Z,0.30
2022-09-12T05:51:44.336Z,0.20
2022-09-12T05:54:13.937Z,0.20
2022-09-12T05:56:44.363Z,0.45
2022-09-12T05:59:13.797Z,0.43
2022-09-12T06:01:41.942Z,0.38
2022-09-12T06:04:10.492Z,0.30
2022-09-12T06:06:41.599Z,0.20
2022-09-12T06:09:09.870Z,0.10
2022-09-12T06:11:40.696Z,0.20
2022-09-12T06:14:09.788Z,0.40
2022-09-12T06:16:38.100Z,0.57
2022-09-12T06:19:15.833Z,0.40
2022-09-12T06:21:45.224Z,0.30
2022-09-12T06:24:13.162Z,0.30
2022-09-12T06:26:40.913Z,0.52
2022-09-12T06:29:08.647Z,0.43
2022-09-12T06:31:37.767Z,0.50
2022-09-12T06:34:08.656Z,0.40
2022-09-12T06:36:39.400Z,0.50
2022-09-12T06:39:11.121Z,0.40
2022-09-12T06:41:43.099Z,0.30
2022-09-12T06:44:13.900Z,0.40
2022-09-12T06:46:41.580Z,0.30
2022-09-12T06:49:09.967Z,0.40
2022-09-12T06:51:37.899Z,0.38
2022-09-12T06:54:07.631Z,0.50
2022-09-12T06:56:37.941Z,0.40
2022-09-12T06:59:05.609Z,0.40
2022-09-12T07:01:33.543Z,0.70
2022-09-12T07:04:02.844Z,0.57
2022-09-12T07:06:37.701Z,0.52
2022-09-12T07:09:12.792Z,0.60
2022-09-12T07:11:42.099Z,0.43
2022-09-12T07:14:12.874Z,0.70
2022-09-12T07:16:40.639Z,0.73
2022-09-12T07:19:09.010Z,0.60
2022-09-12T07:21:39.783Z,0.47
2022-09-12T07:24:10.088Z,0.80
2022-09-12T07:26:38.724Z,0.50
2022-09-12T07:29:32.755Z,0.52
2022-09-12T07:31:54.576Z,0.77
2022-09-12T07:34:22.661Z,0.57
2022-09-12T07:36:50.297Z,0.80
2022-09-12T07:39:19.985Z,0.65
2022-09-12T07:41:47.685Z,0.70
2022-09-12T07:44:15.348Z,0.90
2022-09-12T07:46:43.009Z,0.70
2022-09-12T07:49:13.146Z,0.70
2022-09-12T07:51:41.085Z,0.93
2022-09-12T07:54:09.033Z,0.82
2022-09-12T07:56:39.374Z,1.00
2022-09-12T07:59:07.879Z,0.80
2022-09-12T08:01:35.917Z,0.90
2022-09-12T08:04:04.826Z,0.82
2022-09-12T08:06:33.865Z,0.70
2022-09-12T08:09:01.768Z,0.73
2022-09-12T08:11:31.199Z,0.80
2022-09-12T08:14:02.780Z,0.82
2022-09-12T08:16:32.062Z,1.00
2022-09-12T08:19:01.825Z,0.80
2022-09-12T08:21:31.149Z,0.77
2022-09-12T08:24:00.921Z,0.80
2022-09-12T08:26:30.517Z,0.75
2022-09-12T08:28:59.773Z,0.55
2022-09-12T08:31:28.692Z,1.02
2022-09-12T08:33:57.250Z,0.60
2022-09-12T08:36:26.455Z,0.80
2022-09-12T08:38:59.674Z,0.73
2022-09-12T08:41:31.083Z,0.73
2022-09-12T08:44:16.553Z,0.80
2022-09-12T08:46:52.912Z,0.80
2022-09-12T08:49:27.087Z,0.70
2022-09-12T08:51:55.711Z,0.80
2022-09-12T08:54:26.688Z,0.80
2022-09-12T08:56:57.797Z,0.75
2022-09-12T08:59:26.995Z,0.75
2022-09-12T09:01:58.630Z,0.55
2022-09-12T09:04:37.292Z,0.60
2022-09-12T09:07:33.003Z,0.60
2022-09-12T09:10:18.413Z,0.60
2022-09-12T09:12:52.597Z,0.73
2022-09-12T09:15:44.761Z,0.70
2022-09-12T09:18:17.650Z,0.70
2022-09-12T09:20:49.464Z,0.57
2022-09-12T09:23:22.164Z,0.50
2022-09-12T09:25:53.688Z,0.45
2022-09-12T09:28:23.931Z,0.32
2022-09-12T09:30:53.461Z,0.60
2022-09-12T09:33:23.691Z,0.55
2022-09-12T09:35:57.738Z,0.60
2022-09-12T09:38:32.504Z,0.38
2022-09-12T09:41:13.652Z,0.45
2022-09-12T09:43:41.325Z,0.30
2022-09-12T09:46:11.689Z,0.50
2022-09-12T09:48:42.110Z,0.50
2022-09-12T09:51:09.858Z,0.50
2022-09-12T09:53:41.380Z,0.38
2022-09-12T09:56:12.857Z,0.40
2022-09-12T09:58:40.696Z,0.35
2022-09-12T10:01:16.070Z,0.50
2022-09-12T10:03:49.974Z,0.30
2022-09-12T10:06:27.041Z,0.40
2022-09-12T10:09:20.317Z,0.30
2022-09-12T10:11:48.790Z,0.40
2022-09-12T10:14:32.356Z,0.20
2022-09-12T10:17:03.079Z,0.20
2022-09-12T10:19:38.434Z,0.40
2022-09-12T10:22:06.836Z,0.28
2022-09-12T10:24:36.485Z,0.30
2022-09-12T10:27:09.941Z,0.30
2022-09-12T10:29:43.852Z,0.17
2022-09-12T10:32:14.043Z,0.55
2022-09-12T10:34:44.556Z,0.38
2022-09-12T10:37:20.413Z,0.40
2022-09-12T10:39:53.552Z,0.25
2022-09-12T10:42:42.988Z,0.20
2022-09-12T10:45:19.986Z,0.20
2022-09-12T10:47:49.168Z,0.32
2022-09-12T10:50:30.895Z,0.40
2022-09-12T10:53:15.557Z,0.20
2022-09-12T10:55:59.265Z,0.20
2022-09-12T10:58:49.815Z,0.30
2022-09-12T11:01:24.700Z,0.40
2022-09-12T11:04:07.266Z,0.30
2022-09-12T11:06:41.003Z,0.40
2022-09-12T11:09:14.788Z,0.20
2022-09-12T11:11:55.477Z,0.13
2022-09-12T11:14:36.596Z,0.47
2022-09-12T11:17:13.642Z,0.20
2022-09-12T11:20:07.541Z,0.30
2022-09-12T11:22:44.119Z,0.30
2022-09-12T11:25:25.736Z,0.30
2022-09-12T11:28:07.743Z,0.30
2022-09-12T11:30:41.088Z,0.30
2022-09-12T11:33:17.766Z,0.32
2022-09-12T11:35:53.067Z,0.25
2022-09-12T11:38:37.096Z,0.50
2022-09-12T11:41:06.765Z,0.22
2022-09-12T11:43:39.315Z,0.35
2022-09-12T11:46:13.214Z,0.30
2022-09-12T11:48:46.552Z,0.40
2022-09-12T11:51:20.201Z,0.28
2022-09-12T11:54:00.815Z,0.40
2022-09-12T11:56:28.490Z,0.30
2022-09-12T11:59:00.402Z,0.20
2022-09-12T12:01:30.495Z,0.38
2022-09-12T12:03:58.906Z,0.20
2022-09-12T12:06:31.670Z,0.20
2022-09-12T12:08:59.674Z,0.15
2022-09-12T12:11:31.143Z,0.30
2022-09-12T12:14:01.736Z,0.20
2022-09-12T12:16:30.879Z,0.20
2022-09-12T12:19:00.139Z,0.13
2022-09-12T12:21:42.262Z,0.40
2022-09-12T12:24:18.229Z,0.30
2022-09-12T12:26:57.296Z,0.47
2022-09-12T12:29:43.373Z,0.30
2022-09-12T12:32:25.096Z,0.40
2022-09-12T12:35:03.152Z,0.40
2022-09-12T12:37:52.164Z,0.30
2022-09-12T12:40:25.064Z,0.30
2022-09-12T12:43:00.078Z,0.30
2022-09-12T12:45:49.379Z,0.73
2022-09-12T12:48:20.301Z,0.17
2022-09-12T12:50:48.409Z,0.40
2022-09-12T12:53:21.147Z,0.10
2022-09-12T12:55:51.658Z,0.17
2022-09-12T12:58:30.665Z,0.20
2022-09-12T13:01:10.736Z,0.30
2022-09-12T13:03:39.781Z,0.30
2022-09-12T13:06:09.167Z,0.28
2022-09-12T13:08:40.665Z,0.30
2022-09-12T13:11:10.155Z,0.20
2022-09-12T13:13:40.689Z,0.20
2022-09-12T13:16:10.454Z,0.30
2022-09-12T13:18:43.124Z,0.30
2022-09-12T13:21:13.192Z,0.43
2022-09-12T13:23:42.787Z,0.30
2022-09-12T13:26:12.953Z,0.20
2022-09-12T13:28:40.623Z,0.30
2022-09-12T13:31:13.707Z,0.30
2022-09-12T13:33:43.292Z,0.30
2022-09-12T13:36:39.125Z,0.30
2022-09-12T13:39:16.264Z,0.40
2022-09-12T13:42:03.160Z,0.35
2022-09-12T13:44:31.923Z,0.28
2022-09-12T13:47:03.083Z,0.28
2022-09-12T13:49:34.861Z,0.40
2022-09-12T13:52:04.915Z,0.47
2022-09-12T13:54:34.639Z,0.40
2022-09-12T13:57:02.346Z,0.50
2022-09-12T13:59:39.247Z,0.40
2022-09-12T14:02:18.870Z,0.35
2022-09-12T14:05:05.556Z,0.20
2022-09-12T14:07:34.434Z,0.20
2022-09-12T14:10:05.841Z,0.47
2022-09-12T14:12:36.448Z,0.40
2022-09-12T14:15:04.771Z,0.30
2022-09-12T14:17:36.008Z,0.50
2022-09-12T14:20:07.203Z,0.38
2022-09-12T14:22:36.283Z,0.30
2022-09-12T14:25:10.709Z,0.40
2022-09-12T14:27:43.008Z,0.45
2022-09-12T14:30:23.192Z,0.47
2022-09-12T14:33:05.470Z,0.32
2022-09-12T14:35:33.633Z,0.45
2022-09-12T14:38:08.203Z,0.50
2022-09-12T14:40:43.580Z,0.32
2022-09-12T14:43:20.016Z,0.43
2022-09-12T14:45:55.473Z,0.50
2022-09-12T14:48:23.378Z,0.38
2022-09-12T14:50:51.626Z,0.35
2022-09-12T14:53:27.831Z,0.47
2022-09-12T14:56:00.375Z,0.50
2022-09-12T14:58:29.559Z,0.40
2022-09-12T15:01:01.723Z,0.60
2022-09-12T15:03:34.699Z,0.50
2022-09-12T15:06:03.929Z,0.45
2022-09-12T15:08:32.686Z,0.60
2022-09-12T15:11:01.795Z,0.60
2022-09-12T15:13:30.666Z,0.40
2022-09-12T15:15:59.383Z,0.60
2022-09-12T15:18:28.803Z,0.40
2022-09-12T15:20:57.732Z,0.55
2022-09-12T15:23:31.980Z,0.63
2022-09-12T15:26:00.022Z,0.50
2022-09-12T15:28:32.374Z,0.60
2022-09-12T15:31:05.945Z,0.50
2022-09-12T15:33:33.821Z,0.60
2022-09-12T15:36:03.055Z,0.60
2022-09-12T15:38:30.847Z,0.40
2022-09-12T15:40:58.507Z,0.70
2022-09-12T15:43:27.066Z,0.52
2022-09-12T15:45:56.071Z,0.43
2022-09-12T15:48:23.864Z,0.57
2022-09-12T15:50:51.487Z,0.70
2022-09-12T15:53:19.107Z,0.75
2022-09-12T15:55:46.782Z,0.70
2022-09-12T15:58:14.463Z,0.63
2022-09-12T16:00:42.169Z,0.60
2022-09-12T16:03:21.072Z,0.60
2022-09-12T16:05:48.824Z,0.57
2022-09-12T16:08:16.470Z,0.57
2022-09-12T16:10:44.905Z,0.65
2022-09-12T16:13:13.326Z,0.45
2022-09-12T16:15:40.985Z,0.80
2022-09-12T16:18:08.704Z,0.70
2022-09-12T16:20:40.193Z,0.80
2022-09-12T16:23:08.236Z,0.65
2022-09-12T16:25:37.457Z,0.90
2022-09-12T16:28:05.627Z,0.55
2022-09-12T16:30:33.341Z,0.65
2022-09-12T16:33:01.338Z,0.70
2022-09-12T16:35:29.037Z,0.68
2022-09-12T16:37:58.079Z,0.45
2022-09-12T16:40:25.723Z,0.52
2022-09-12T16:42:53.375Z,0.60
2022-09-12T16:45:21.038Z,0.73
2022-09-12T16:47:48.696Z,0.57
2022-09-12T16:50:17.352Z,0.90
2022-09-12T16:52:44.994Z,0.60
2022-09-12T16:55:14.013Z,0.38
2022-09-12T16:57:41.649Z,0.70
2022-09-12T17:00:10.848Z,0.70
2022-09-12T17:02:38.525Z,0.70
2022-09-12T17:05:07.224Z,0.50
2022-09-12T17:07:35.127Z,0.80
2022-09-12T17:10:05.017Z,0.50
2022-09-12T17:12:34.220Z,0.40
2022-09-12T17:15:02.932Z,0.70
2022-09-12T17:17:30.593Z,0.60
2022-09-12T17:19:59.312Z,0.60
2022-09-12T17:22:27.513Z,0.50
2022-09-12T17:24:55.324Z,0.50
2022-09-12T17:27:22.995Z,0.55
2022-09-12T17:29:51.975Z,0.60
2022-09-12T17:32:19.599Z,0.55
2022-09-12T17:34:47.256Z,0.65
2022-09-12T17:37:15.058Z,0.60
2022-09-12T17:39:42.751Z,0.43
2022-09-12T17:42:10.448Z,0.55
2022-09-12T17:44:38.150Z,0.70
2022-09-12T17:47:07.309Z,0.40
2022-09-12T17:49:35.645Z,0.60
2022-09-12T17:52:04.064Z,0.60
2022-09-12T17:54:31.765Z,0.60
2022-09-12T17:56:59.644Z,0.55
2022-09-12T17:59:27.340Z,0.50
2022-09-12T18:02:12.895Z,0.50
2022-09-12T18:04:45.684Z,0.60
2022-09-12T18:07:13.764Z,0.50
2022-09-12T18:09:43.762Z,0.50
2022-09-12T18:12:11.730Z,0.50
2022-09-12T18:14:39.612Z,0.60
2022-09-12T18:17:08.561Z,0.30
2022-09-12T18:19:36.421Z,0.55
2022-09-12T18:22:06.649Z,0.60
2022-09-12T18:24:34.438Z,0.50
2022-09-12T18:27:04.371Z,0.68
2022-09-12T18:29:33.195Z,0.45
2022-09-12T18:32:00.843Z,0.57
2022-09-12T18:34:28.824Z,0.63
2022-09-12T18:36:56.574Z,0.70
2022-09-12T18:39:27.890Z,0.60
2022-09-12T18:41:57.159Z,0.63
2022-09-12T18:44:24.816Z,0.50
2022-09-12T18:46:52.716Z,0.70
2022-09-12T18:49:20.392Z,0.60
2022-09-12T18:51:48.056Z,0.70
2022-09-12T18:54:17.507Z,0.40
2022-09-12T18:56:47.505Z,0.55
2022-09-12T18:59:15.221Z,0.65
2022-09-12T19:01:43.702Z,0.77
2022-09-12T19:04:12.891Z,0.80
2022-09-12T19:06:42.088Z,0.47
2022-09-12T19:09:10.831Z,0.50
2022-09-12T19:11:40.765Z,0.50
2022-09-12T19:14:09.762Z,0.50
2022-09-12T19:16:38.048Z,0.70
2022-09-12T19:19:06.169Z,0.52
2022-09-12T19:21:35.128Z,0.50
2022-09-12T19:24:05.150Z,0.60
2022-09-12T19:26:33.658Z,0.60
2022-09-12T19:29:02.752Z,0.70
2022-09-12T19:31:32.516Z,0.38
2022-09-12T19:34:01.352Z,0.60
2022-09-12T19:36:45.015Z,0.70
2022-09-12T19:39:13.849Z,0.70
2022-09-12T19:41:41.508Z,0.65
2022-09-12T19:44:09.255Z,0.60
2022-09-12T19:46:38.441Z,0.70
2022-09-12T19:49:06.593Z,0.80
2022-09-12T19:51:34.216Z,0.80
2022-09-12T19:54:03.007Z,0.75
2022-09-12T19:56:30.848Z,0.73
2022-09-12T19:58:58.564Z,0.60
2022-09-12T20:01:28.598Z,0.47
2022-09-12T20:03:58.410Z,0.60
2022-09-12T20:06:27.189Z,0.70
2022-09-12T20:08:55.378Z,0.60
2022-09-12T20:11:24.285Z,0.80
2022-09-12T20:13:52.318Z,0.60
2022-09-12T20:16:22.596Z,0.80
2022-09-12T20:18:54.448Z,0.80
2022-09-12T20:21:30.765Z,0.50
2022-09-12T20:24:03.040Z,0.73
2022-09-12T20:26:31.155Z,0.65
2022-09-12T20:28:58.815Z,0.60
2022-09-12T20:31:26.574Z,0.30
2022-09-12T20:33:55.155Z,0.60
2022-09-12T20:36:24.236Z,0.63
2022-09-12T20:38:53.485Z,0.77
2022-09-12T20:41:23.305Z,0.63
2022-09-12T20:43:51.090Z,0.68
2022-09-12T20:46:21.922Z,0.73
2022-09-12T20:48:50.373Z,0.63
2022-09-12T20:51:18.613Z,0.60
2022-09-12T20:53:48.311Z,0.70
2022-09-12T20:56:16.085Z,0.80
2022-09-12T20:58:44.775Z,0.80
2022-09-12T21:01:15.599Z,1.00
2022-09-12T21:03:44.685Z,0.80
2022-09-12T21:06:13.374Z,0.70
2022-09-12T21:08:41.383Z,0.80
2022-09-12T21:11:10.730Z,0.80
2022-09-12T21:13:38.635Z,0.50
2022-09-12T21:16:07.982Z,0.65
2022-09-12T21:18:36.128Z,0.60
2022-09-12T21:21:06.605Z,0.60
2022-09-12T21:23:34.921Z,0.88
2022-09-12T21:26:05.839Z,0.90
2022-09-12T21:28:35.011Z,0.85
2022-09-12T21:31:05.087Z,0.70
2022-09-12T21:33:32.968Z,0.70
2022-09-12T21:36:04.359Z,0.70
2022-09-12T21:38:32.450Z,0.70
2022-09-12T21:41:06.255Z,0.80
2022-09-12T21:43:35.473Z,0.60
2022-09-12T21:46:04.102Z,0.77
2022-09-12T21:48:32.243Z,0.75
2022-09-12T21:51:00.313Z,0.35
2022-09-12T21:53:29.200Z,0.70
2022-09-12T21:56:03.063Z,0.70
2022-09-12T21:58:31.012Z,0.63
2022-09-12T22:01:00.750Z,0.80
2022-09-12T22:03:28.598Z,0.57
2022-09-12T22:06:00.349Z,0.63
2022-09-12T22:08:28.374Z,0.60
2022-09-12T22:10:59.392Z,0.90
2022-09-12T22:13:27.431Z,0.63
2022-09-12T22:15:55.190Z,0.68
2022-09-12T22:18:24.203Z,0.80
2022-09-12T22:20:59.598Z,0.70
2022-09-12T22:23:44.935Z,0.70
2022-09-12T22:26:12.888Z,0.52
2022-09-12T22:28:41.092Z,0.80
2022-09-12T22:31:11.320Z,0.63
2022-09-12T22:33:40.584Z,0.95
2022-09-12T22:36:09.774Z,0.68
2022-09-12T22:38:37.624Z,0.50
2022-09-12T22:41:06.129Z,0.60
2022-09-12T22:43:34.233Z,0.73
2022-09-12T22:46:03.040Z,0.77
2022-09-12T22:48:30.696Z,0.80
2022-09-12T22:50:59.712Z,0.55
2022-09-12T22:53:27.340Z,0.50
2022-09-12T22:55:54.980Z,0.50
2022-09-12T22:58:22.630Z,0.70
2022-09-12T23:00:51.283Z,0.82
2022-09-12T23:03:19.349Z,0.80
2022-09-12T23:05:48.188Z,0.52
2022-09-12T23:08:19.236Z,0.88
2022-09-12T23:10:47.003Z,0.82
2022-09-12T23:13:14.905Z,0.73
2022-09-12T23:15:42.568Z,0.60
2022-09-12T23:18:10.203Z,0.70
2022-09-12T23:20:37.844Z,0.70
2022-09-12T23:23:05.505Z,0.70
2022-09-12T23:25:34.484Z,0.70
2022-09-12T23:28:02.948Z,0.70
2022-09-12T23:30:30.917Z,0.68
2022-09-12T23:32:58.553Z,0.57
2022-09-12T23:35:26.184Z,0.80
2022-09-12T23:37:53.828Z,0.70
2022-09-12T23:40:21.583Z,0.40
2022-09-12T23:42:50.643Z,0.57
2022-09-12T23:45:18.279Z,0.55
2022-09-12T23:47:45.928Z,0.40
2022-09-12T23:50:13.589Z,0.60
2022-09-12T23:52:41.237Z,0.70
2022-09-12T23:55:10.028Z,0.77
2022-09-12T23:57:39.209Z,0.40
